• Join FlightAware (Why Join?)
  • Login
  • US Flag 
07:33PM EST


 

Airport Tracker/Info


-or-


 

Live Flight TrackerFlight Track Log ✈ NSH880 ✈ 25-Aug-2013 ✈ KMSO - KPWK

Flight Track Log - Related Links

Times and Time Zones

All times are in EDT time to prevent confusion due to time zone crossing. See the NSH880 flight status page for this flight to view local times or setup timezone preferences in your user account.

Time Position Orientation Groundspeed Altitude Reporting Facility
EDT Latitude Longitude Course Direction KTS MPH feet Rate Location/Type
02:26PM 46.9433 -114.1336 49° Northeast 207 238 4,600  Level Salt Lake Center
02:27PM 46.9775 -114.0769 49° Northeast 235 270 7,300 2,371 Climbing Salt Lake Center
02:28PM 46.9661 -113.9611 98° East 276 318 9,500 1,984 Climbing Salt Lake Center
02:29PM 46.9400 -113.8333 107° East 326 375 11,400 2,323 Climbing Salt Lake Center
02:30PM 46.9117 -113.6808 105° East 359 413 14,300 2,903 Climbing Salt Lake Center
02:31PM 46.8903 -113.5353 102° East 366 421 17,400 2,613 Climbing Salt Lake Center
02:32PM 46.8672 -113.3897 103° East 370 426 19,700 1,935 Climbing Salt Lake Center
02:33PM 46.8414 -113.2567 106° East 386 444 21,400 2,129 Climbing Salt Lake Center
02:34PM 46.8092 -113.0753 104° East 389 448 24,100 2,129 Climbing Salt Lake Center
02:35PM 46.7953 -112.9128 97° East 405 466 25,800 1,597 Climbing Salt Lake Center
02:36PM 46.7850 -112.7267 95° East 418 481 27,400 1,548 Climbing Salt Lake Center
02:37PM 46.7733 -112.5544 96° East 427 491 29,000 1,452 Climbing Salt Lake Center
02:38PM 46.7650 -112.3797 94° East 433 498 30,400 1,355 Climbing Salt Lake Center
02:39PM 46.7564 -112.2014 94° East 439 505 31,800 1,355 Climbing Salt Lake Center
02:40PM 46.7483 -112.0228 94° East 443 510 33,200 1,306 Climbing Salt Lake Center
02:41PM 46.7322 -111.8456 97° East 444 511 34,500 1,161 Climbing Salt Lake Center
02:42PM 46.7128 -111.6317 97° East 445 512 35,600 968 Climbing Salt Lake Center
02:43PM 46.6994 -111.4483 96° East 453 521 36,500 629 Climbing Salt Lake Center
02:44PM 46.6894 -111.2614 94° East 463 533 36,900 194 Climbing Salt Lake Center
02:45PM 46.6700 -111.0728 98° East 472 543 36,900 48 Level Salt Lake Center
02:46PM 46.6547 -110.8769 96° East 486 559 37,000 48 Climbing Salt Lake Center
02:47PM 46.6389 -110.6392 95° East 493 567 37,000  Level Salt Lake Center
02:48PM 46.6214 -110.4486 98° East 482 555 37,000  Level Salt Lake Center
02:49PM 46.6028 -110.2567 98° East 480 552 37,000  Level Salt Lake Center
02:50PM 46.5853 -110.0622 97° East 484 557 37,000  Level Salt Lake Center
02:52PM 46.5678 -109.8694 97° East 485 558 37,000  Level Salt Lake Center
02:53PM 46.5464 -109.6381 98° East 482 555 37,000  Level Salt Lake Center
02:54PM 46.5281 -109.4461 98° East 481 554 37,000  Level Salt Lake Center
02:55PM 46.5106 -109.2475 97° East 490 564 37,000  Level Salt Lake Center
02:56PM 46.4917 -109.0556 98° East 484 557 37,000  Level Salt Lake Center
02:57PM 46.4733 -108.8639 98° East 482 555 37,000  Level Salt Lake Center
02:58PM 46.4522 -108.6722 99° East 481 554 37,000  Level Salt Lake Center
02:59PM 46.4317 -108.4800 99° East 483 556 37,000  Level Salt Lake Center
03:00PM 46.4078 -108.2500 98° East 481 554 37,000  Level Salt Lake Center
03:01PM 46.3864 -108.0581 99° East 484 557 37,000  Level Salt Lake Center
03:02PM 46.3661 -107.8661 99° East 483 556 37,000  Level Salt Lake Center
03:03PM 46.3447 -107.6747 99° East 484 557 37,000  Level Salt Lake Center
03:04PM 46.3231 -107.4842 99° East 481 554 37,000  Level Salt Lake Center
03:05PM 46.3000 -107.2917 100° East 486 559 37,000  Level Salt Lake Center
03:06PM 46.2750 -107.0633 99° East 481 554 37,000  Level Salt Lake Center
03:07PM 46.2511 -106.8714 100° East 483 556 37,000  Level Salt Lake Center
03:08PM 46.2256 -106.6800 101° East 485 558 37,000  Level Salt Lake Center
03:09PM 46.2033 -106.4850 99° East 490 564 37,000 49 Level Salt Lake Center
03:10PM 46.1789 -106.2928 100° East 489 563 37,100 244 Climbing Salt Lake Center
03:11PM 46.1544 -106.0975 100° East 491 565 37,500 484 Climbing Salt Lake Center
03:12PM 46.1308 -105.9031 100° East 494 568 38,100 532 Climbing Salt Lake Center
03:13PM 46.0983 -105.6758 102° East 487 560 38,600 435 Climbing Salt Lake Center
03:14PM 46.0714 -105.4847 101° East 487 560 39,000 194 Climbing Salt Lake Center
03:15PM 46.0436 -105.2908 102° East 491 565 39,000  Level Salt Lake Center
03:16PM 46.0189 -105.0958 100° East 494 568 39,000  Level Salt Lake Center
03:17PM 45.9925 -104.8972 101° East 502 578 39,000  Level Salt Lake Center
03:18PM 45.9669 -104.7006 101° East 503 579 39,000  Level Salt Lake Center
03:19PM 45.9333 -104.4694 102° East 496 571 39,000 -48 Level Salt Lake Center
03:20PM 45.9106 -104.3114 102° East 492 566 38,900 -48 Descending Salt Lake Center
03:21PM 45.8775 -104.0792 101° East 497 572 38,900 48 Level Salt Lake Center
03:23PM 45.8500 -103.8850 101° East 498 573 39,000  Climbing Salt Lake Center
03:24PM 45.8208 -103.6917 102° East 498 573 38,900 -48 Descending Salt Lake Center
03:25PM 45.7908 -103.5014 103° East 494 568 38,900  Level Salt Lake Center
03:26PM 45.7622 -103.3089 102° East 495 570 38,900  Level Salt Lake Center
03:27PM 45.7267 -103.0756 102° East 500 575 38,900  Level Salt Lake Center
03:27PM 45.7094 -102.9681 103° East 497 572 38,900  Level Minneapolis Center
03:28PM 45.6731 -102.7369 103° East 498 573 38,900 44 Level Minneapolis Center
03:30PM 45.6456 -102.5672 103° East 497 572 39,000 44 Climbing Minneapolis Center
03:31PM 45.6000 -102.2989 104° East 497 572 39,000  Level Minneapolis Center
03:32PM 45.5692 -102.1064 103° East 498 573 39,000  Level Minneapolis Center
03:33PM 45.5375 -101.9150 103° East 497 572 39,000  Level Minneapolis Center
03:34PM 45.5050 -101.7239 104° East 497 572 39,000  Level Minneapolis Center
03:35PM 45.4661 -101.4947 104° East 496 571 39,000  Level Minneapolis Center
03:36PM 45.4342 -101.3039 103° East 496 571 39,000  Level Minneapolis Center
03:37PM 45.3983 -101.0769 103° East 491 565 39,000  Level Minneapolis Center
03:38PM 45.3644 -100.8917 105° East 486 559 39,000  Level Minneapolis Center
03:39PM 45.3292 -100.7067 105° East 485 558 39,000  Level Minneapolis Center
03:40PM 45.2961 -100.5228 104° East 482 555 39,000  Level Minneapolis Center
03:41PM 45.2581 -100.3033 104° East 478 550 39,000  Level Minneapolis Center
03:43PM 45.2261 -100.1214 104° East 474 545 39,000  Level Minneapolis Center
03:44PM 45.1936 -99.9319 104° East 482 555 39,000  Level Minneapolis Center
03:45PM 45.1589 -99.7419 104° East 485 558 39,000  Level Minneapolis Center
03:46PM 45.1153 -99.5253 106° East 475 547 39,000  Level Minneapolis Center
03:47PM 45.0803 -99.3456 105° East 473 544 39,000  Level Minneapolis Center
03:48PM 45.0450 -99.1653 105° East 474 545 39,000 -194 Level Minneapolis Center
03:49PM 45.0086 -98.9856 106° East 475 547 38,600 -484 Descending Minneapolis Center
03:50PM 44.9728 -98.8036 105° East 479 551 38,000 -484 Descending Minneapolis Center
03:51PM 44.9397 -98.6236 104° East 476 548 37,600 -435 Descending Minneapolis Center
03:52PM 44.9053 -98.4506 106° East 464 534 37,100 -290 Descending Minneapolis Center
03:53PM 44.8650 -98.2619 107° East 460 529 37,000 -48 Descending Minneapolis Center
03:54PM 44.8269 -98.0903 107° East 460 529 37,000  Level Minneapolis Center
03:55PM 44.7836 -97.8833 106° East 461 531 37,000  Level Minneapolis Center
03:56PM 44.7492 -97.7083 105° East 463 533 37,000  Level Minneapolis Center
03:57PM 44.7131 -97.5356 106° East 462 532 37,000  Level Minneapolis Center
03:58PM 44.6756 -97.3614 107° East 465 535 37,000  Level Minneapolis Center
03:59PM 44.6375 -97.1881 107° East 466 536 37,000  Level Minneapolis Center
04:00PM 44.6006 -97.0150 107° East 465 535 37,000  Level Minneapolis Center
04:01PM 44.5553 -96.8058 107° East 468 539 37,000  Level Minneapolis Center
04:02PM 44.5175 -96.6336 107° East 463 533 37,000  Level Minneapolis Center
04:03PM 44.4881 -96.4939 106° East 465 535 37,000  Level Minneapolis Center
04:04PM 44.4431 -96.2828 107° East 468 539 37,000  Level Minneapolis Center
04:05PM 44.4039 -96.1081 107° East 465 535 37,000  Level Minneapolis Center
04:06PM 44.3639 -95.9333 108° East 465 535 37,000  Level Minneapolis Center
04:07PM 44.3228 -95.7597 108° East 467 537 37,000  Level Minneapolis Center
04:08PM 44.2836 -95.5856 107° East 468 539 37,000  Level Minneapolis Center
04:09PM 44.2364 -95.3772 107° East 470 541 37,000  Level Minneapolis Center
04:10PM 44.1942 -95.2058 109° East 467 537 37,000  Level Minneapolis Center
04:11PM 44.1531 -95.0344 108° East 468 539 37,000  Level Minneapolis Center
04:13PM 44.1122 -94.8617 108° East 470 541 37,000  Level Minneapolis Center
04:14PM 44.0722 -94.6908 108° East 466 536 37,000  Level Minneapolis Center
04:15PM 44.0308 -94.5211 109° East 466 536 37,000  Level Minneapolis Center
04:16PM 43.9814 -94.3150 108° East 468 539 37,000  Level Minneapolis Center
04:17PM 43.9453 -94.1686 109° East 471 542 37,000  Level Minneapolis Center
04:18PM 43.8936 -93.9636 109° East 471 542 37,000  Level Minneapolis Center
04:19PM 43.8503 -93.7931 109° East 472 543 37,000  Level Minneapolis Center
04:20PM 43.8078 -93.6208 109° East 474 545 37,000  Level Minneapolis Center
04:21PM 43.7636 -93.4511 110° East 472 543 37,000  Level Minneapolis Center
04:22PM 43.7211 -93.2775 109° East 477 549 37,000  Level Minneapolis Center
04:23PM 43.6772 -93.0997 109° East 475 547 37,000  Level Minneapolis Center
04:24PM 43.6250 -92.8947 109° East 476 548 37,000  Level Minneapolis Center
04:25PM 43.5789 -92.7250 111° Southeast 476 548 37,000  Level Minneapolis Center
04:26PM 43.5292 -92.5581 112° Southeast 475 547 37,000 -339 Level Minneapolis Center
04:27PM 43.4464 -92.4217 130° Southeast 469 540 36,300 -871 Descending Minneapolis Center
04:28PM 43.3769 -92.3131 131° Southeast 474 545 35,200 -1,500 Descending Minneapolis Center
04:29PM 43.2572 -92.1214 131° Southeast 476 548 33,200 -1,588 Descending Minneapolis Center
04:30PM 43.1736 -91.9794 129° Southeast 479 551 31,600 -1,226 Descending Minneapolis Center
04:31PM 43.0778 -91.8086 127° Southeast 478 550 30,400 -1,104 Descending Minneapolis Center
04:32PM 42.9989 -91.6689 128° Southeast 471 542 29,300 -677 Descending Minneapolis Center
04:33PM 42.9164 -91.5319 129° Southeast 465 535 29,000 -145 Descending Minneapolis Center
04:34PM 42.8453 -91.3819 123° Southeast 481 554 29,000  Level Minneapolis Center
04:35PM 42.7992 -91.2167 111° Southeast 469 540 29,000 -194 Level Minneapolis Center
04:37PM 42.7478 -91.0186 109° East 467 537 28,600 -726 Descending Minneapolis Center
04:38PM 42.7003 -90.8500 111° Southeast 474 545 27,500 -1,210 Descending Minneapolis Center
04:39PM 42.6497 -90.6794 112° Southeast 485 558 26,100 -1,352 Descending Minneapolis Center
04:40PM 42.5886 -90.4467 110° East 477 549 24,300 -1,986 Descending Chicago Center
04:41PM 42.5389 -90.2781 112° Southeast 483 556 21,400 -2,208 Descending Chicago Center
04:42PM 42.4908 -90.1086 111° Southeast 487 560 19,700 -1,392 Descending Chicago Center
04:43PM 42.4853 -89.9394 92° East 459 528 18,500 -1,210 Descending Chicago Center
04:44PM 42.4772 -89.7578 93° East 443 510 17,200 -1,548 Descending Chicago Center
04:45PM 42.4597 -89.5678 97° East 437 503 15,300 -1,645 Descending Chicago Center
04:46PM 42.4453 -89.4058 97° East 435 501 13,800 -1,452 Descending Chicago Center
04:47PM 42.4353 -89.2531 95° East 415 478 12,300 -1,597 Descending Chicago Center
04:48PM 42.4231 -89.1047 96° East 401 461 10,500 -1,452 Descending Chicago Center
04:49PM 42.4133 -88.9869 96° East 326 375 9,300 -1,548 Descending Chicago Center
04:50PM 42.3728 -88.8925 120° Southeast 295 339 7,300 -1,887 Descending Chicago Center
04:51PM 42.3247 -88.7947 124° Southeast 287 330 5,400 -1,104 Descending Chicago Center
04:52PM 42.3214 -88.6894 92° East 297 342 5,000 -194 Descending Chicago Center
04:53PM 42.3100 -88.5800 98° East 297 342 5,000  Level Chicago Center
04:54PM 42.2969 -88.4436 97° East 304 350 5,000  Level Chicago Center
04:55PM 42.2867 -88.3311 97° East 304 350 5,000  Level Chicago Center
04:56PM 42.2761 -88.2203 97° East 302 348 5,000 -240 Level Chicago Center
04:58PM 42.2289 -88.1331 126° Southeast 290 334 4,500 -1,104 Descending Chicago Center
04:59PM 42.1958 -88.0442 117° Southeast 277 319 2,700 -1,248 Descending Chicago Center
05:00PM 42.1919 -87.9494 93° East 238 274 1,900 -435 Descending Chicago Center
05:01PM 42.1697 -87.9228 138° Southeast 203 234 1,800 -97 Descending Chicago Center
05:03PM 42.1143 -87.9015 109° East  Level Estimated
05:10PM 42.1143 -87.9015 109° East  Level Estimated
05:11PM 42.1143 -87.9015 109° East  Level Estimated